sensor_id;sensor_type;location;lat;lon;timestamp;P1;durP1;ratioP1;P2;durP2;ratioP2
62610;SDS011;48683;48.084;17.272;2022-09-20T00:01:24;3.10;;;1.52;;
62610;SDS011;48683;48.084;17.272;2022-09-20T00:03:54;2.55;;;1.40;;
62610;SDS011;48683;48.084;17.272;2022-09-20T00:06:22;3.90;;;1.67;;
62610;SDS011;48683;48.084;17.272;2022-09-20T00:08:50;1.95;;;1.50;;
62610;SDS011;48683;48.084;17.272;2022-09-20T00:11:16;1.70;;;1.50;;
62610;SDS011;48683;48.084;17.272;2022-09-20T00:13:44;3.45;;;1.70;;
62610;SDS011;48683;48.084;17.272;2022-09-20T00:16:12;1.98;;;1.50;;
62610;SDS011;48683;48.084;17.272;2022-09-20T00:18:49;2.65;;;1.65;;
62610;SDS011;48683;48.084;17.272;2022-09-20T00:23:42;2.17;;;1.40;;
62610;SDS011;48683;48.084;17.272;2022-09-20T00:26:08;2.97;;;1.52;;
62610;SDS011;48683;48.084;17.272;2022-09-20T00:28:34;3.35;;;1.40;;
62610;SDS011;48683;48.084;17.272;2022-09-20T00:30:59;5.63;;;1.83;;
62610;SDS011;48683;48.084;17.272;2022-09-20T00:33:25;3.10;;;1.60;;
62610;SDS011;48683;48.084;17.272;2022-09-20T00:36:10;2.33;;;1.40;;
62610;SDS011;48683;48.084;17.272;2022-09-20T00:38:36;2.47;;;1.65;;
62610;SDS011;48683;48.084;17.272;2022-09-20T00:41:01;4.30;;;1.70;;
62610;SDS011;48683;48.084;17.272;2022-09-20T00:46:02;3.00;;;1.48;;
62610;SDS011;48683;48.084;17.272;2022-09-20T00:48:29;3.22;;;1.60;;
62610;SDS011;48683;48.084;17.272;2022-09-20T00:51:19;2.47;;;1.75;;
62610;SDS011;48683;48.084;17.272;2022-09-20T00:53:46;2.60;;;1.77;;
62610;SDS011;48683;48.084;17.272;2022-09-20T00:56:16;2.83;;;1.88;;
62610;SDS011;48683;48.084;17.272;2022-09-20T01:01:50;4.50;;;1.80;;
62610;SDS011;48683;48.084;17.272;2022-09-20T01:04:19;3.97;;;1.80;;
62610;SDS011;48683;48.084;17.272;2022-09-20T01:06:47;3.13;;;1.75;;
62610;SDS011;48683;48.084;17.272;2022-09-20T01:11:39;3.90;;;1.73;;
62610;SDS011;48683;48.084;17.272;2022-09-20T01:14:05;4.10;;;1.67;;
62610;SDS011;48683;48.084;17.272;2022-09-20T01:16:31;3.10;;;1.80;;
62610;SDS011;48683;48.084;17.272;2022-09-20T01:18:59;2.65;;;1.48;;
62610;SDS011;48683;48.084;17.272;2022-09-20T01:21:26;3.67;;;1.95;;
62610;SDS011;48683;48.084;17.272;2022-09-20T01:24:06;2.60;;;1.87;;
62610;SDS011;48683;48.084;17.272;2022-09-20T01:26:48;1.65;;;1.55;;
62610;SDS011;48683;48.084;17.272;2022-09-20T01:31:54;2.55;;;1.65;;
62610;SDS011;48683;48.084;17.272;2022-09-20T01:39:43;5.15;;;1.90;;
62610;SDS011;48683;48.084;17.272;2022-09-20T01:42:11;3.45;;;1.60;;
62610;SDS011;48683;48.084;17.272;2022-09-20T01:47:34;3.15;;;1.70;;
62610;SDS011;48683;48.084;17.272;2022-09-20T02:23:10;4.78;;;4.38;;
62610;SDS011;48683;48.084;17.272;2022-09-20T02:42:33;3.63;;;3.25;;
62610;SDS011;48683;48.084;17.272;2022-09-20T02:47:59;4.75;;;3.35;;
62610;SDS011;48683;48.084;17.272;2022-09-20T02:55:46;3.80;;;3.50;;
62610;SDS011;48683;48.084;17.272;2022-09-20T02:58:30;3.70;;;3.40;;
62610;SDS011;48683;48.084;17.272;2022-09-20T03:06:41;2.97;;;2.70;;
62610;SDS011;48683;48.084;17.272;2022-09-20T03:12:13;2.50;;;1.95;;
62610;SDS011;48683;48.084;17.272;2022-09-20T03:14:54;4.90;;;2.20;;
62610;SDS011;48683;48.084;17.272;2022-09-20T03:21:00;4.30;;;2.75;;
62610;SDS011;48683;48.084;17.272;2022-09-20T03:29:17;3.60;;;2.97;;
62610;SDS011;48683;48.084;17.272;2022-09-20T03:40:05;4.00;;;2.97;;
62610;SDS011;48683;48.084;17.272;2022-09-20T03:42:33;2.63;;;2.42;;
62610;SDS011;48683;48.084;17.272;2022-09-20T04:06:33;6.40;;;3.50;;
62610;SDS011;48683;48.084;17.272;2022-09-20T04:12:14;5.93;;;3.22;;
62610;SDS011;48683;48.084;17.272;2022-09-20T04:17:37;5.47;;;3.20;;
62610;SDS011;48683;48.084;17.272;2022-09-20T04:20:20;6.00;;;3.63;;
62610;SDS011;48683;48.084;17.272;2022-09-20T04:23:29;5.40;;;4.80;;
62610;SDS011;48683;48.084;17.272;2022-09-20T04:26:02;5.15;;;4.50;;
62610;SDS011;48683;48.084;17.272;2022-09-20T04:28:33;4.80;;;4.40;;
62610;SDS011;48683;48.084;17.272;2022-09-20T04:31:02;4.28;;;3.35;;
62610;SDS011;48683;48.084;17.272;2022-09-20T04:33:39;3.38;;;2.25;;
62610;SDS011;48683;48.084;17.272;2022-09-20T04:39:06;6.60;;;2.58;;
62610;SDS011;48683;48.084;17.272;2022-09-20T05:13:14;2.35;;;1.67;;
62610;SDS011;48683;48.084;17.272;2022-09-20T05:15:56;3.03;;;2.13;;
62610;SDS011;48683;48.084;17.272;2022-09-20T05:35:32;3.33;;;2.10;;
62610;SDS011;48683;48.084;17.272;2022-09-20T05:38:03;2.45;;;1.52;;
62610;SDS011;48683;48.084;17.272;2022-09-20T05:49:02;4.55;;;1.70;;
62610;SDS011;48683;48.084;17.272;2022-09-20T05:51:54;3.10;;;1.58;;
62610;SDS011;48683;48.084;17.272;2022-09-20T06:05:06;2.92;;;1.27;;
62610;SDS011;48683;48.084;17.272;2022-09-20T06:16:20;2.08;;;1.60;;
62610;SDS011;48683;48.084;17.272;2022-09-20T06:21:32;5.97;;;1.77;;
62610;SDS011;48683;48.084;17.272;2022-09-20T06:24:17;2.22;;;1.50;;
62610;SDS011;48683;48.084;17.272;2022-09-20T06:27:05;1.38;;;1.27;;
62610;SDS011;48683;48.084;17.272;2022-09-20T06:29:38;2.22;;;1.20;;
62610;SDS011;48683;48.084;17.272;2022-09-20T06:32:06;1.83;;;1.38;;
62610;SDS011;48683;48.084;17.272;2022-09-20T06:34:32;2.60;;;1.30;;
62610;SDS011;48683;48.084;17.272;2022-09-20T06:39:58;1.80;;;1.23;;
62610;SDS011;48683;48.084;17.272;2022-09-20T06:42:50;3.67;;;1.20;;
62610;SDS011;48683;48.084;17.272;2022-09-20T06:45:17;1.20;;;1.20;;
62610;SDS011;48683;48.084;17.272;2022-09-20T06:47:42;3.08;;;1.50;;
62610;SDS011;48683;48.084;17.272;2022-09-20T06:50:13;3.75;;;1.50;;
62610;SDS011;48683;48.084;17.272;2022-09-20T06:52:40;2.42;;;1.67;;
62610;SDS011;48683;48.084;17.272;2022-09-20T06:55:09;2.20;;;1.65;;
62610;SDS011;48683;48.084;17.272;2022-09-20T06:57:42;1.73;;;1.45;;
62610;SDS011;48683;48.084;17.272;2022-09-20T07:00:08;2.30;;;1.70;;
62610;SDS011;48683;48.084;17.272;2022-09-20T07:02:39;1.48;;;1.17;;
62610;SDS011;48683;48.084;17.272;2022-09-20T07:05:05;1.95;;;1.85;;
62610;SDS011;48683;48.084;17.272;2022-09-20T07:07:31;2.87;;;2.13;;
62610;SDS011;48683;48.084;17.272;2022-09-20T07:09:57;5.15;;;2.45;;
62610;SDS011;48683;48.084;17.272;2022-09-20T07:12:22;2.58;;;1.90;;
62610;SDS011;48683;48.084;17.272;2022-09-20T07:14:48;1.97;;;1.87;;
62610;SDS011;48683;48.084;17.272;2022-09-20T07:17:14;2.55;;;2.20;;
62610;SDS011;48683;48.084;17.272;2022-09-20T07:19:40;2.88;;;1.35;;
62610;SDS011;48683;48.084;17.272;2022-09-20T07:22:05;1.48;;;1.10;;
62610;SDS011;48683;48.084;17.272;2022-09-20T07:24:31;2.65;;;1.08;;
62610;SDS011;48683;48.084;17.272;2022-09-20T07:27:00;4.93;;;1.30;;
62610;SDS011;48683;48.084;17.272;2022-09-20T07:29:27;1.92;;;0.90;;
62610;SDS011;48683;48.084;17.272;2022-09-20T07:31:53;0.82;;;0.82;;
62610;SDS011;48683;48.084;17.272;2022-09-20T07:34:18;1.35;;;1.00;;
62610;SDS011;48683;48.084;17.272;2022-09-20T07:36:44;1.48;;;1.15;;
62610;SDS011;48683;48.084;17.272;2022-09-20T07:39:13;3.60;;;0.80;;
62610;SDS011;48683;48.084;17.272;2022-09-20T07:41:38;1.48;;;1.10;;
62610;SDS011;48683;48.084;17.272;2022-09-20T07:44:04;1.23;;;0.90;;
62610;SDS011;48683;48.084;17.272;2022-09-20T07:46:48;1.42;;;1.00;;
62610;SDS011;48683;48.084;17.272;2022-09-20T07:49:18;4.15;;;1.50;;
62610;SDS011;48683;48.084;17.272;2022-09-20T07:51:44;4.75;;;1.50;;
62610;SDS011;48683;48.084;17.272;2022-09-20T07:54:09;6.38;;;1.60;;
62610;SDS011;48683;48.084;17.272;2022-09-20T07:56:35;1.90;;;1.80;;
62610;SDS011;48683;48.084;17.272;2022-09-20T07:59:00;3.47;;;3.10;;
62610;SDS011;48683;48.084;17.272;2022-09-20T08:01:26;7.20;;;1.90;;
62610;SDS011;48683;48.084;17.272;2022-09-20T08:03:51;3.83;;;2.17;;
62610;SDS011;48683;48.084;17.272;2022-09-20T08:06:16;2.67;;;1.73;;
62610;SDS011;48683;48.084;17.272;2022-09-20T08:08:42;1.48;;;1.38;;
62610;SDS011;48683;48.084;17.272;2022-09-20T08:11:10;1.37;;;1.27;;
62610;SDS011;48683;48.084;17.272;2022-09-20T08:13:41;4.05;;;3.28;;
62610;SDS011;48683;48.084;17.272;2022-09-20T08:16:10;1.92;;;1.80;;
62610;SDS011;48683;48.084;17.272;2022-09-20T08:18:38;2.67;;;1.83;;
62610;SDS011;48683;48.084;17.272;2022-09-20T08:21:07;2.35;;;2.13;;
62610;SDS011;48683;48.084;17.272;2022-09-20T08:23:37;4.25;;;1.98;;
62610;SDS011;48683;48.084;17.272;2022-09-20T08:26:04;6.60;;;4.57;;
62610;SDS011;48683;48.084;17.272;2022-09-20T08:28:33;1.50;;;1.40;;
62610;SDS011;48683;48.084;17.272;2022-09-20T08:33:27;1.98;;;1.30;;
62610;SDS011;48683;48.084;17.272;2022-09-20T08:35:53;3.40;;;1.33;;
62610;SDS011;48683;48.084;17.272;2022-09-20T08:38:19;3.05;;;2.58;;
62610;SDS011;48683;48.084;17.272;2022-09-20T08:40:44;3.58;;;2.78;;
62610;SDS011;48683;48.084;17.272;2022-09-20T08:43:10;4.60;;;2.00;;
62610;SDS011;48683;48.084;17.272;2022-09-20T08:45:36;2.30;;;1.55;;
62610;SDS011;48683;48.084;17.272;2022-09-20T08:48:05;2.78;;;2.03;;
62610;SDS011;48683;48.084;17.272;2022-09-20T08:50:35;2.58;;;1.65;;
62610;SDS011;48683;48.084;17.272;2022-09-20T08:53:01;3.80;;;1.42;;
62610;SDS011;48683;48.084;17.272;2022-09-20T08:55:29;1.85;;;1.00;;
62610;SDS011;48683;48.084;17.272;2022-09-20T08:57:56;3.35;;;1.00;;
62610;SDS011;48683;48.084;17.272;2022-09-20T09:00:32;2.08;;;1.08;;
62610;SDS011;48683;48.084;17.272;2022-09-20T09:03:02;1.45;;;1.02;;
62610;SDS011;48683;48.084;17.272;2022-09-20T09:07:58;4.05;;;1.17;;
62610;SDS011;48683;48.084;17.272;2022-09-20T09:10:36;3.65;;;1.00;;
62610;SDS011;48683;48.084;17.272;2022-09-20T09:13:03;1.92;;;1.00;;
62610;SDS011;48683;48.084;17.272;2022-09-20T09:15:33;1.65;;;1.10;;
62610;SDS011;48683;48.084;17.272;2022-09-20T09:18:00;2.25;;;1.15;;
62610;SDS011;48683;48.084;17.272;2022-09-20T09:20:25;0.93;;;0.90;;
62610;SDS011;48683;48.084;17.272;2022-09-20T09:22:58;1.27;;;0.70;;
62610;SDS011;48683;48.084;17.272;2022-09-20T09:25:27;2.60;;;1.10;;
62610;SDS011;48683;48.084;17.272;2022-09-20T09:35:43;2.90;;;1.00;;
62610;SDS011;48683;48.084;17.272;2022-09-20T09:38:18;0.80;;;0.75;;
62610;SDS011;48683;48.084;17.272;2022-09-20T09:40:51;3.63;;;0.77;;
62610;SDS011;48683;48.084;17.272;2022-09-20T09:43:19;2.00;;;0.90;;
62610;SDS011;48683;48.084;17.272;2022-09-20T09:45:47;1.52;;;1.05;;
62610;SDS011;48683;48.084;17.272;2022-09-20T09:48:17;2.05;;;1.00;;
62610;SDS011;48683;48.084;17.272;2022-09-20T09:51:11;1.58;;;0.60;;
62610;SDS011;48683;48.084;17.272;2022-09-20T09:53:40;1.42;;;0.82;;
62610;SDS011;48683;48.084;17.272;2022-09-20T09:56:11;1.20;;;0.82;;
62610;SDS011;48683;48.084;17.272;2022-09-20T10:01:25;3.03;;;2.42;;
62610;SDS011;48683;48.084;17.272;2022-09-20T10:06:26;2.25;;;1.08;;
62610;SDS011;48683;48.084;17.272;2022-09-20T10:23:10;1.60;;;1.50;;
62610;SDS011;48683;48.084;17.272;2022-09-20T10:31:46;2.60;;;1.50;;
62610;SDS011;48683;48.084;17.272;2022-09-20T10:37:13;1.90;;;1.80;;
62610;SDS011;48683;48.084;17.272;2022-09-20T10:39:48;3.15;;;2.55;;
62610;SDS011;48683;48.084;17.272;2022-09-20T10:42:33;2.70;;;2.50;;
62610;SDS011;48683;48.084;17.272;2022-09-20T10:48:31;3.30;;;2.38;;
62610;SDS011;48683;48.084;17.272;2022-09-20T10:54:04;2.08;;;1.90;;
62610;SDS011;48683;48.084;17.272;2022-09-20T10:57:00;3.20;;;1.70;;
62610;SDS011;48683;48.084;17.272;2022-09-20T11:08:12;2.45;;;1.20;;
62610;SDS011;48683;48.084;17.272;2022-09-20T11:11:01;1.30;;;1.20;;
62610;SDS011;48683;48.084;17.272;2022-09-20T11:13:56;1.45;;;1.35;;
62610;SDS011;48683;48.084;17.272;2022-09-20T11:19:00;1.67;;;1.23;;
62610;SDS011;48683;48.084;17.272;2022-09-20T11:21:38;2.25;;;1.50;;
62610;SDS011;48683;48.084;17.272;2022-09-20T11:26:53;3.37;;;1.23;;
62610;SDS011;48683;48.084;17.272;2022-09-20T11:34:32;4.15;;;1.00;;
62610;SDS011;48683;48.084;17.272;2022-09-20T11:37:04;1.77;;;1.10;;
62610;SDS011;48683;48.084;17.272;2022-09-20T11:42:33;1.60;;;1.02;;
62610;SDS011;48683;48.084;17.272;2022-09-20T11:45:00;1.17;;;0.90;;
62610;SDS011;48683;48.084;17.272;2022-09-20T11:47:28;1.08;;;0.90;;
62610;SDS011;48683;48.084;17.272;2022-09-20T11:53:20;2.67;;;1.02;;
62610;SDS011;48683;48.084;17.272;2022-09-20T11:56:06;0.95;;;0.90;;
62610;SDS011;48683;48.084;17.272;2022-09-20T11:58:46;1.10;;;0.93;;
62610;SDS011;48683;48.084;17.272;2022-09-20T12:01:15;2.65;;;1.20;;
62610;SDS011;48683;48.084;17.272;2022-09-20T12:04:10;1.02;;;0.90;;
62610;SDS011;48683;48.084;17.272;2022-09-20T12:06:37;1.05;;;0.90;;
62610;SDS011;48683;48.084;17.272;2022-09-20T12:09:05;2.90;;;1.17;;
62610;SDS011;48683;48.084;17.272;2022-09-20T12:11:46;2.10;;;1.40;;
62610;SDS011;48683;48.084;17.272;2022-09-20T12:14:16;1.27;;;1.17;;
62610;SDS011;48683;48.084;17.272;2022-09-20T12:16:53;0.70;;;0.70;;
62610;SDS011;48683;48.084;17.272;2022-09-20T12:24:23;1.23;;;0.80;;
62610;SDS011;48683;48.084;17.272;2022-09-20T12:30:04;2.65;;;0.70;;
62610;SDS011;48683;48.084;17.272;2022-09-20T12:32:45;0.75;;;0.75;;
62610;SDS011;48683;48.084;17.272;2022-09-20T12:40:59;0.80;;;0.80;;
62610;SDS011;48683;48.084;17.272;2022-09-20T12:43:28;1.00;;;1.00;;
62610;SDS011;48683;48.084;17.272;2022-09-20T12:45:55;1.10;;;1.10;;
62610;SDS011;48683;48.084;17.272;2022-09-20T12:48:22;0.93;;;0.93;;
62610;SDS011;48683;48.084;17.272;2022-09-20T12:51:01;1.20;;;0.70;;
62610;SDS011;48683;48.084;17.272;2022-09-20T12:54:03;1.20;;;0.55;;
62610;SDS011;48683;48.084;17.272;2022-09-20T12:56:33;0.90;;;0.90;;
62610;SDS011;48683;48.084;17.272;2022-09-20T12:59:00;1.20;;;1.10;;
62610;SDS011;48683;48.084;17.272;2022-09-20T13:01:31;1.10;;;1.00;;
62610;SDS011;48683;48.084;17.272;2022-09-20T13:07:51;1.00;;;0.90;;
62610;SDS011;48683;48.084;17.272;2022-09-20T13:09:57;1.95;;;0.80;;
62610;SDS011;48683;48.084;17.272;2022-09-20T13:12:27;2.80;;;0.70;;
62610;SDS011;48683;48.084;17.272;2022-09-20T13:14:53;2.58;;;0.80;;
62610;SDS011;48683;48.084;17.272;2022-09-20T13:17:25;1.83;;;0.70;;
62610;SDS011;48683;48.084;17.272;2022-09-20T13:19:55;0.93;;;0.60;;
62610;SDS011;48683;48.084;17.272;2022-09-20T13:25:02;1.10;;;1.00;;
62610;SDS011;48683;48.084;17.272;2022-09-20T13:27:41;1.77;;;0.70;;
62610;SDS011;48683;48.084;17.272;2022-09-20T13:30:16;1.88;;;0.60;;
62610;SDS011;48683;48.084;17.272;2022-09-20T13:44:51;0.47;;;0.35;;
62610;SDS011;48683;48.084;17.272;2022-09-20T13:47:24;1.85;;;0.40;;
62610;SDS011;48683;48.084;17.272;2022-09-20T13:49:51;1.02;;;0.60;;
62610;SDS011;48683;48.084;17.272;2022-09-20T13:52:42;0.45;;;0.45;;
62610;SDS011;48683;48.084;17.272;2022-09-20T13:55:34;0.40;;;0.40;;
62610;SDS011;48683;48.084;17.272;2022-09-20T14:00:57;0.60;;;0.50;;
62610;SDS011;48683;48.084;17.272;2022-09-20T14:03:25;0.60;;;0.60;;
62610;SDS011;48683;48.084;17.272;2022-09-20T14:05:53;0.85;;;0.60;;
62610;SDS011;48683;48.084;17.272;2022-09-20T14:10:46;1.38;;;0.70;;
62610;SDS011;48683;48.084;17.272;2022-09-20T14:13:14;0.73;;;0.60;;
62610;SDS011;48683;48.084;17.272;2022-09-20T14:15:42;0.50;;;0.50;;
62610;SDS011;48683;48.084;17.272;2022-09-20T14:18:15;0.70;;;0.60;;
62610;SDS011;48683;48.084;17.272;2022-09-20T14:20:42;1.65;;;0.57;;
62610;SDS011;48683;48.084;17.272;2022-09-20T14:28:48;0.40;;;0.40;;
62610;SDS011;48683;48.084;17.272;2022-09-20T14:31:15;0.90;;;0.50;;
62610;SDS011;48683;48.084;17.272;2022-09-20T14:33:45;1.13;;;0.85;;
62610;SDS011;48683;48.084;17.272;2022-09-20T14:36:17;0.68;;;0.68;;
62610;SDS011;48683;48.084;17.272;2022-09-20T14:38:45;0.75;;;0.70;;
62610;SDS011;48683;48.084;17.272;2022-09-20T14:41:12;2.45;;;0.60;;
62610;SDS011;48683;48.084;17.272;2022-09-20T14:43:52;0.80;;;0.60;;
62610;SDS011;48683;48.084;17.272;2022-09-20T14:46:19;0.77;;;0.68;;
62610;SDS011;48683;48.084;17.272;2022-09-20T14:49:40;1.50;;;0.50;;
62610;SDS011;48683;48.084;17.272;2022-09-20T14:51:49;0.70;;;0.70;;
62610;SDS011;48683;48.084;17.272;2022-09-20T14:54:28;1.45;;;0.60;;
62610;SDS011;48683;48.084;17.272;2022-09-20T14:56:56;0.55;;;0.50;;
62610;SDS011;48683;48.084;17.272;2022-09-20T14:59:23;2.03;;;0.82;;
62610;SDS011;48683;48.084;17.272;2022-09-20T15:04:50;0.57;;;0.50;;
62610;SDS011;48683;48.084;17.272;2022-09-20T15:07:18;1.77;;;0.55;;
62610;SDS011;48683;48.084;17.272;2022-09-20T15:09:43;0.95;;;0.50;;
62610;SDS011;48683;48.084;17.272;2022-09-20T15:12:10;3.97;;;0.90;;
62610;SDS011;48683;48.084;17.272;2022-09-20T15:14:38;1.13;;;0.88;;
62610;SDS011;48683;48.084;17.272;2022-09-20T15:17:05;0.63;;;0.60;;
62610;SDS011;48683;48.084;17.272;2022-09-20T15:19:31;1.13;;;0.80;;
62610;SDS011;48683;48.084;17.272;2022-09-20T15:21:56;0.60;;;0.60;;
62610;SDS011;48683;48.084;17.272;2022-09-20T15:24:23;1.40;;;0.98;;
62610;SDS011;48683;48.084;17.272;2022-09-20T15:26:48;4.55;;;1.13;;
62610;SDS011;48683;48.084;17.272;2022-09-20T15:29:14;1.38;;;1.02;;
62610;SDS011;48683;48.084;17.272;2022-09-20T15:31:41;1.75;;;0.90;;
62610;SDS011;48683;48.084;17.272;2022-09-20T15:34:07;1.77;;;0.95;;
62610;SDS011;48683;48.084;17.272;2022-09-20T15:36:32;1.83;;;1.13;;
62610;SDS011;48683;48.084;17.272;2022-09-20T15:38:58;4.05;;;1.45;;
62610;SDS011;48683;48.084;17.272;2022-09-20T15:41:24;2.72;;;1.60;;
62610;SDS011;48683;48.084;17.272;2022-09-20T15:43:49;2.50;;;1.55;;
62610;SDS011;48683;48.084;17.272;2022-09-20T15:46:21;2.67;;;1.63;;
62610;SDS011;48683;48.084;17.272;2022-09-20T15:48:48;3.60;;;1.63;;
62610;SDS011;48683;48.084;17.272;2022-09-20T15:51:14;3.58;;;1.65;;
62610;SDS011;48683;48.084;17.272;2022-09-20T15:53:44;2.38;;;1.65;;
62610;SDS011;48683;48.084;17.272;2022-09-20T15:56:15;2.20;;;2.00;;
62610;SDS011;48683;48.084;17.272;2022-09-20T15:58:46;6.30;;;3.78;;
62610;SDS011;48683;48.084;17.272;2022-09-20T16:01:13;3.28;;;2.50;;
62610;SDS011;48683;48.084;17.272;2022-09-20T16:03:42;3.50;;;2.33;;
62610;SDS011;48683;48.084;17.272;2022-09-20T16:06:08;2.75;;;2.55;;
62610;SDS011;48683;48.084;17.272;2022-09-20T16:08:36;3.15;;;1.95;;
62610;SDS011;48683;48.084;17.272;2022-09-20T16:11:06;4.35;;;2.17;;
62610;SDS011;48683;48.084;17.272;2022-09-20T16:13:33;2.70;;;2.00;;
62610;SDS011;48683;48.084;17.272;2022-09-20T16:16:02;2.67;;;2.10;;
62610;SDS011;48683;48.084;17.272;2022-09-20T16:18:29;2.85;;;2.00;;
62610;SDS011;48683;48.084;17.272;2022-09-20T16:21:14;3.13;;;2.20;;
62610;SDS011;48683;48.084;17.272;2022-09-20T16:23:41;3.67;;;2.20;;
62610;SDS011;48683;48.084;17.272;2022-09-20T16:26:12;3.78;;;2.40;;
62610;SDS011;48683;48.084;17.272;2022-09-20T16:28:38;4.15;;;1.70;;
62610;SDS011;48683;48.084;17.272;2022-09-20T16:31:04;4.10;;;2.60;;
62610;SDS011;48683;48.084;17.272;2022-09-20T16:33:29;2.65;;;2.08;;
62610;SDS011;48683;48.084;17.272;2022-09-20T16:35:57;2.33;;;2.13;;
62610;SDS011;48683;48.084;17.272;2022-09-20T16:38:22;3.80;;;2.08;;
62610;SDS011;48683;48.084;17.272;2022-09-20T16:40:48;3.70;;;2.20;;
62610;SDS011;48683;48.084;17.272;2022-09-20T16:43:18;3.15;;;2.28;;
62610;SDS011;48683;48.084;17.272;2022-09-20T16:45:57;2.72;;;1.98;;
62610;SDS011;48683;48.084;17.272;2022-09-20T16:48:24;3.35;;;2.25;;
62610;SDS011;48683;48.084;17.272;2022-09-20T16:50:53;2.78;;;2.13;;
62610;SDS011;48683;48.084;17.272;2022-09-20T16:53:19;4.10;;;2.03;;
62610;SDS011;48683;48.084;17.272;2022-09-20T16:55:44;3.70;;;2.22;;
62610;SDS011;48683;48.084;17.272;2022-09-20T16:58:09;3.63;;;2.70;;
62610;SDS011;48683;48.084;17.272;2022-09-20T17:00:35;4.47;;;3.40;;
62610;SDS011;48683;48.084;17.272;2022-09-20T17:03:00;4.10;;;3.72;;
62610;SDS011;48683;48.084;17.272;2022-09-20T17:05:26;5.38;;;4.90;;
62610;SDS011;48683;48.084;17.272;2022-09-20T17:07:52;5.60;;;5.10;;
62610;SDS011;48683;48.084;17.272;2022-09-20T17:10:18;4.97;;;4.47;;
62610;SDS011;48683;48.084;17.272;2022-09-20T17:12:44;6.38;;;5.35;;
62610;SDS011;48683;48.084;17.272;2022-09-20T17:15:11;5.70;;;5.20;;
62610;SDS011;48683;48.084;17.272;2022-09-20T17:17:40;5.40;;;4.88;;
62610;SDS011;48683;48.084;17.272;2022-09-20T17:20:06;5.35;;;4.85;;
62610;SDS011;48683;48.084;17.272;2022-09-20T17:22:32;4.80;;;4.40;;
62610;SDS011;48683;48.084;17.272;2022-09-20T17:24:57;5.40;;;3.97;;
62610;SDS011;48683;48.084;17.272;2022-09-20T17:27:23;4.85;;;3.47;;
62610;SDS011;48683;48.084;17.272;2022-09-20T17:29:48;5.05;;;4.13;;
62610;SDS011;48683;48.084;17.272;2022-09-20T17:32:14;6.93;;;5.20;;
62610;SDS011;48683;48.084;17.272;2022-09-20T17:34:39;7.03;;;5.07;;
62610;SDS011;48683;48.084;17.272;2022-09-20T17:37:05;4.65;;;4.00;;
62610;SDS011;48683;48.084;17.272;2022-09-20T17:39:30;3.03;;;2.65;;
62610;SDS011;48683;48.084;17.272;2022-09-20T17:41:56;3.78;;;2.83;;
62610;SDS011;48683;48.084;17.272;2022-09-20T17:44:21;4.00;;;3.30;;
62610;SDS011;48683;48.084;17.272;2022-09-20T17:46:48;3.43;;;3.13;;
62610;SDS011;48683;48.084;17.272;2022-09-20T17:49:15;4.57;;;3.97;;
62610;SDS011;48683;48.084;17.272;2022-09-20T17:51:43;4.38;;;3.85;;
62610;SDS011;48683;48.084;17.272;2022-09-20T17:54:10;4.43;;;3.88;;
62610;SDS011;48683;48.084;17.272;2022-09-20T17:56:43;3.50;;;2.45;;
62610;SDS011;48683;48.084;17.272;2022-09-20T17:59:10;2.83;;;2.15;;
62610;SDS011;48683;48.084;17.272;2022-09-20T18:01:36;5.15;;;2.33;;
62610;SDS011;48683;48.084;17.272;2022-09-20T18:04:04;3.85;;;2.40;;
62610;SDS011;48683;48.084;17.272;2022-09-20T18:06:35;8.05;;;2.63;;
62610;SDS011;48683;48.084;17.272;2022-09-20T18:09:05;4.03;;;2.10;;
62610;SDS011;48683;48.084;17.272;2022-09-20T18:11:36;2.63;;;2.42;;
62610;SDS011;48683;48.084;17.272;2022-09-20T18:14:04;3.05;;;2.67;;
62610;SDS011;48683;48.084;17.272;2022-09-20T18:16:31;7.45;;;3.50;;
62610;SDS011;48683;48.084;17.272;2022-09-20T18:21:25;4.40;;;3.10;;
62610;SDS011;48683;48.084;17.272;2022-09-20T18:23:52;4.53;;;2.67;;
62610;SDS011;48683;48.084;17.272;2022-09-20T18:26:19;5.68;;;2.40;;
62610;SDS011;48683;48.084;17.272;2022-09-20T18:28:50;3.08;;;2.22;;
62610;SDS011;48683;48.084;17.272;2022-09-20T18:31:29;2.72;;;2.10;;
62610;SDS011;48683;48.084;17.272;2022-09-20T18:33:59;3.05;;;2.00;;
62610;SDS011;48683;48.084;17.272;2022-09-20T18:36:30;3.10;;;2.20;;
62610;SDS011;48683;48.084;17.272;2022-09-20T18:38:57;5.70;;;3.10;;
62610;SDS011;48683;48.084;17.272;2022-09-20T18:41:24;4.18;;;3.75;;
62610;SDS011;48683;48.084;17.272;2022-09-20T18:43:55;5.00;;;3.50;;
62610;SDS011;48683;48.084;17.272;2022-09-20T18:46:22;4.30;;;3.90;;
62610;SDS011;48683;48.084;17.272;2022-09-20T18:48:52;3.65;;;3.35;;
62610;SDS011;48683;48.084;17.272;2022-09-20T18:51:18;6.55;;;3.92;;
62610;SDS011;48683;48.084;17.272;2022-09-20T18:53:44;3.75;;;3.45;;
62610;SDS011;48683;48.084;17.272;2022-09-20T18:56:23;6.75;;;3.40;;
62610;SDS011;48683;48.084;17.272;2022-09-20T18:58:57;4.43;;;2.95;;
62610;SDS011;48683;48.084;17.272;2022-09-20T19:06:42;2.42;;;2.15;;
62610;SDS011;48683;48.084;17.272;2022-09-20T19:09:19;2.60;;;2.10;;
62610;SDS011;48683;48.084;17.272;2022-09-20T19:11:52;2.17;;;1.77;;
62610;SDS011;48683;48.084;17.272;2022-09-20T19:17:31;4.22;;;2.38;;
62610;SDS011;48683;48.084;17.272;2022-09-20T19:20:11;5.03;;;2.70;;
62610;SDS011;48683;48.084;17.272;2022-09-20T19:25:49;3.33;;;1.90;;
62610;SDS011;48683;48.084;17.272;2022-09-20T19:28:27;3.05;;;1.88;;
62610;SDS011;48683;48.084;17.272;2022-09-20T19:30:52;2.00;;;1.90;;
62610;SDS011;48683;48.084;17.272;2022-09-20T19:33:19;2.40;;;2.20;;
62610;SDS011;48683;48.084;17.272;2022-09-20T19:35:46;2.88;;;2.40;;
62610;SDS011;48683;48.084;17.272;2022-09-20T19:38:15;3.30;;;3.00;;
62610;SDS011;48683;48.084;17.272;2022-09-20T19:46:17;4.38;;;3.97;;
62610;SDS011;48683;48.084;17.272;2022-09-20T19:48:46;4.00;;;3.70;;
62610;SDS011;48683;48.084;17.272;2022-09-20T19:51:35;6.50;;;4.47;;
62610;SDS011;48683;48.084;17.272;2022-09-20T19:56:28;6.37;;;4.30;;
62610;SDS011;48683;48.084;17.272;2022-09-20T19:59:07;5.38;;;4.72;;
62610;SDS011;48683;48.084;17.272;2022-09-20T20:01:33;7.13;;;4.72;;
62610;SDS011;48683;48.084;17.272;2022-09-20T20:03:59;5.43;;;4.60;;
62610;SDS011;48683;48.084;17.272;2022-09-20T20:09:09;5.45;;;4.47;;
62610;SDS011;48683;48.084;17.272;2022-09-20T20:17:47;4.10;;;2.90;;
62610;SDS011;48683;48.084;17.272;2022-09-20T20:25:48;2.53;;;1.90;;
62610;SDS011;48683;48.084;17.272;2022-09-20T20:28:32;2.78;;;2.20;;
62610;SDS011;48683;48.084;17.272;2022-09-20T20:30:58;4.65;;;2.05;;
62610;SDS011;48683;48.084;17.272;2022-09-20T20:33:25;2.88;;;1.90;;
62610;SDS011;48683;48.084;17.272;2022-09-20T20:35:54;3.58;;;2.13;;
62610;SDS011;48683;48.084;17.272;2022-09-20T20:38:21;3.38;;;2.20;;
62610;SDS011;48683;48.084;17.272;2022-09-20T20:40:56;5.82;;;2.78;;
62610;SDS011;48683;48.084;17.272;2022-09-20T20:43:27;4.68;;;2.60;;
62610;SDS011;48683;48.084;17.272;2022-09-20T20:45:54;4.65;;;2.30;;
62610;SDS011;48683;48.084;17.272;2022-09-20T20:48:19;3.72;;;2.47;;
62610;SDS011;48683;48.084;17.272;2022-09-20T20:50:45;3.63;;;2.30;;
62610;SDS011;48683;48.084;17.272;2022-09-20T20:53:11;7.07;;;2.33;;
62610;SDS011;48683;48.084;17.272;2022-09-20T20:55:37;2.72;;;2.15;;
62610;SDS011;48683;48.084;17.272;2022-09-20T20:58:02;2.95;;;2.58;;
62610;SDS011;48683;48.084;17.272;2022-09-20T21:00:28;6.28;;;2.58;;
62610;SDS011;48683;48.084;17.272;2022-09-20T21:03:00;5.55;;;2.60;;
62610;SDS011;48683;48.084;17.272;2022-09-20T21:05:28;4.57;;;2.70;;